createdAt,value
2019-05-12T00:00:28.753Z,10.08
2019-05-12T00:01:28.652Z,10.08
2019-05-12T00:02:28.741Z,10.01
2019-05-12T00:03:27.736Z,10.06
2019-05-12T00:04:28.056Z,10.06
2019-05-12T00:05:27.978Z,10.02
2019-05-12T00:06:28.427Z,10.10
2019-05-12T00:07:28.563Z,10.09
2019-05-12T00:08:27.797Z,10.02
2019-05-12T00:09:28.265Z,9.99
2019-05-12T00:10:28.219Z,10.05
2019-05-12T00:11:28.755Z,10.02
2019-05-12T00:12:27.813Z,10.02
2019-05-12T00:13:27.951Z,9.98
2019-05-12T00:14:28.268Z,10.02
2019-05-12T00:15:27.947Z,9.99
2019-05-12T00:16:28.335Z,10.02
2019-05-12T00:17:28.406Z,10.03
2019-05-12T00:18:28.511Z,10.03
2019-05-12T00:19:28.510Z,10.02
2019-05-12T00:20:28.296Z,9.96
2019-05-12T00:21:28.360Z,10.06
2019-05-12T00:22:28.645Z,10.01
2019-05-12T00:23:30.824Z,10.02
2019-05-12T00:24:27.964Z,9.93
2019-05-12T00:25:28.334Z,9.99
2019-05-12T00:26:28.312Z,9.96
2019-05-12T00:27:28.470Z,9.98
2019-05-12T00:28:28.360Z,9.96
2019-05-12T00:29:28.738Z,9.96
2019-05-12T00:30:27.704Z,10.02
2019-05-12T00:31:28.084Z,9.98
2019-05-12T00:32:28.196Z,9.96
2019-05-12T00:33:28.250Z,10.02
2019-05-12T00:34:28.854Z,9.94
2019-05-12T00:35:28.474Z,9.93
2019-05-12T00:36:29.077Z,9.85
2019-05-12T00:37:28.870Z,9.94
2019-05-12T00:38:27.808Z,9.99
2019-05-12T00:39:27.879Z,9.94
2019-05-12T00:40:28.039Z,9.99
2019-05-12T00:41:28.408Z,10.02
2019-05-12T00:42:28.746Z,9.87
2019-05-12T00:43:28.194Z,9.88
2019-05-12T00:44:28.422Z,10.05
2019-05-12T00:45:29.174Z,9.96
2019-05-12T00:46:27.848Z,9.94
2019-05-12T00:47:28.071Z,10.02
2019-05-12T00:48:28.395Z,9.94
2019-05-12T00:49:29.005Z,9.87
2019-05-12T00:50:28.864Z,10.02
2019-05-12T00:51:28.810Z,10.02
2019-05-12T00:52:28.129Z,9.96
2019-05-12T00:53:39.395Z,10.02
2019-05-12T00:54:28.469Z,9.99
2019-05-12T00:55:28.943Z,9.90
2019-05-12T00:56:28.425Z,10.05
2019-05-12T00:57:28.670Z,10.02
2019-05-12T00:58:27.762Z,9.96
2019-05-12T00:59:27.954Z,10.01
2019-05-12T01:00:29.446Z,9.94
2019-05-12T01:01:28.584Z,10.02
2019-05-12T01:02:28.641Z,9.88
2019-05-12T01:03:27.903Z,10.01
2019-05-12T01:04:28.953Z,10.02
2019-05-12T01:05:29.128Z,10.03
2019-05-12T01:06:28.261Z,9.96
2019-05-12T01:07:27.766Z,9.88
2019-05-12T01:08:28.081Z,10.01
2019-05-12T01:09:28.197Z,9.96
2019-05-12T01:10:28.676Z,10.01
2019-05-12T01:11:28.601Z,10.03
2019-05-12T01:12:28.517Z,10.02
2019-05-12T01:13:27.929Z,10.02
2019-05-12T01:14:27.856Z,10.03
2019-05-12T01:15:28.835Z,9.93
2019-05-12T01:16:28.789Z,9.93
2019-05-12T01:17:28.202Z,10.03
2019-05-12T01:18:28.017Z,10.03
2019-05-12T01:19:28.602Z,9.90
2019-05-12T01:20:28.366Z,10.01
2019-05-12T01:21:28.558Z,10.03
2019-05-12T01:22:27.773Z,10.03
2019-05-12T01:23:28.111Z,10.03
2019-05-12T01:24:28.211Z,10.03
2019-05-12T01:25:28.774Z,10.02
2019-05-12T01:26:28.478Z,10.02
2019-05-12T01:27:28.621Z,10.05
2019-05-12T01:28:27.806Z,9.99
2019-05-12T01:29:28.184Z,10.01
2019-05-12T01:30:28.513Z,9.93
2019-05-12T01:31:28.461Z,9.99
2019-05-12T01:32:28.683Z,10.03
2019-05-12T01:33:27.678Z,9.99
2019-05-12T01:34:27.721Z,10.02
2019-05-12T01:35:28.295Z,10.03
2019-05-12T01:36:28.550Z,9.98
2019-05-12T01:37:27.970Z,10.03
2019-05-12T01:38:28.569Z,10.01
2019-05-12T01:39:27.704Z,10.05
2019-05-12T01:40:28.707Z,10.03
2019-05-12T01:41:28.501Z,9.99
2019-05-12T01:42:28.515Z,10.05
2019-05-12T01:43:27.810Z,10.08
2019-05-12T01:44:28.625Z,10.02
2019-05-12T01:45:28.473Z,10.08
2019-05-12T01:46:28.275Z,10.01
2019-05-12T01:47:28.939Z,10.10
2019-05-12T01:48:28.543Z,10.03
2019-05-12T01:49:26.249Z,10.03
2019-05-12T01:50:28.354Z,10.01
2019-05-12T01:51:28.333Z,10.03
2019-05-12T01:52:28.419Z,9.96
2019-05-12T01:53:28.530Z,10.06
2019-05-12T01:54:27.826Z,10.01
2019-05-12T01:55:28.151Z,9.99
2019-05-12T01:56:26.184Z,10.02
2019-05-12T01:57:26.125Z,10.03
2019-05-12T01:58:27.793Z,10.02
2019-05-12T01:59:26.108Z,10.02
2019-05-12T02:00:28.439Z,10.03
2019-05-12T02:01:28.065Z,9.99
2019-05-12T02:02:28.423Z,9.99
2019-05-12T02:03:28.223Z,10.01
2019-05-12T02:04:28.389Z,10.01
2019-05-12T02:05:27.936Z,10.05
2019-05-12T02:06:27.843Z,10.03
2019-05-12T02:07:27.935Z,10.03
2019-05-12T02:08:27.904Z,9.99
2019-05-12T02:09:28.007Z,9.99
2019-05-12T02:10:28.300Z,10.06
2019-05-12T02:11:28.715Z,10.02
2019-05-12T02:12:25.961Z,10.02
2019-05-12T02:13:27.707Z,10.06
2019-05-12T02:14:27.575Z,10.02
2019-05-12T02:15:27.817Z,10.03
2019-05-12T02:16:28.070Z,10.03
2019-05-12T02:17:28.231Z,9.93
2019-05-12T02:18:28.108Z,9.98
2019-05-12T02:19:28.143Z,10.03
2019-05-12T02:20:25.870Z,9.99
2019-05-12T02:21:27.893Z,10.09
2019-05-12T02:22:27.880Z,10.02
2019-05-12T02:23:28.050Z,10.06
2019-05-12T02:24:29.751Z,10.03
2019-05-12T02:25:25.812Z,10.02
2019-05-12T02:26:25.802Z,10.05
2019-05-12T02:27:28.301Z,10.03
2019-05-12T02:28:25.799Z,9.99
2019-05-12T02:29:25.786Z,9.96
2019-05-12T02:30:29.701Z,9.94
2019-05-12T02:31:29.158Z,9.98
2019-05-12T02:32:35.520Z,9.96
2019-05-12T02:33:26.773Z,9.93
2019-05-12T02:34:25.826Z,10.02
2019-05-12T02:35:25.734Z,9.96
2019-05-12T02:36:26.171Z,9.99
2019-05-12T02:37:26.357Z,9.88
2019-05-12T02:38:25.684Z,9.88
2019-05-12T02:39:25.662Z,9.99
2019-05-12T02:40:25.772Z,9.96
2019-05-12T02:41:26.248Z,10.02
2019-05-12T02:42:25.690Z,9.98
2019-05-12T02:43:25.649Z,9.88
2019-05-12T02:44:25.635Z,9.94
2019-05-12T02:45:25.927Z,10.01
2019-05-12T02:46:25.895Z,9.94
2019-05-12T02:47:25.648Z,9.88
2019-05-12T02:48:25.588Z,9.90
2019-05-12T02:49:25.571Z,9.84
2019-05-12T02:50:25.544Z,9.80
2019-05-12T02:51:25.546Z,9.96
2019-05-12T02:52:25.573Z,9.87
2019-05-12T02:53:25.513Z,9.85
2019-05-12T02:54:45.868Z,9.84
2019-05-12T02:55:26.497Z,9.84
2019-05-12T02:56:26.076Z,9.98
2019-05-12T02:57:25.859Z,9.85
2019-05-12T02:58:25.592Z,9.83
2019-05-12T02:59:25.673Z,9.90
2019-05-12T03:00:25.507Z,9.91
2019-05-12T03:01:25.423Z,9.91
2019-05-12T03:02:25.453Z,9.80
2019-05-12T03:03:25.414Z,9.87
2019-05-12T03:04:25.471Z,9.80
2019-05-12T03:05:25.398Z,9.83
2019-05-12T03:06:25.439Z,9.78
2019-05-12T03:07:25.709Z,9.78
2019-05-12T03:08:25.943Z,9.83
2019-05-12T03:09:25.379Z,9.84
2019-05-12T03:10:25.433Z,9.85
2019-05-12T03:11:25.390Z,9.72
2019-05-12T03:12:25.760Z,9.84
2019-05-12T03:13:25.592Z,9.80
2019-05-12T03:14:25.503Z,9.78
2019-05-12T03:15:25.362Z,9.84
2019-05-12T03:16:25.832Z,9.83
2019-05-12T03:17:25.483Z,9.75
2019-05-12T03:18:25.591Z,9.73
2019-05-12T03:19:25.463Z,9.77
2019-05-12T03:20:25.212Z,9.77
2019-05-12T03:21:25.214Z,9.80
2019-05-12T03:22:25.479Z,9.77
2019-05-12T03:23:25.216Z,9.80
2019-05-12T03:24:25.350Z,9.72
2019-05-12T03:25:29.912Z,9.80
2019-05-12T03:26:26.159Z,9.77
2019-05-12T03:27:25.735Z,9.77
2019-05-12T03:28:25.866Z,9.72
2019-05-12T03:29:25.368Z,9.72
2019-05-12T03:30:28.902Z,9.75
2019-05-12T03:31:31.509Z,9.77
2019-05-12T03:32:28.015Z,9.80
2019-05-12T03:33:33.334Z,9.81
2019-05-12T03:34:29.475Z,9.73
2019-05-12T03:35:32.525Z,9.83
2019-05-12T03:36:32.114Z,9.75
2019-05-12T03:37:30.959Z,9.80
2019-05-12T03:38:27.621Z,9.81
2019-05-12T03:39:25.256Z,9.81
2019-05-12T03:40:25.159Z,9.78
2019-05-12T03:41:25.280Z,9.80
2019-05-12T03:42:25.407Z,9.81
2019-05-12T03:43:25.012Z,9.73
2019-05-12T03:44:25.371Z,9.84
2019-05-12T03:45:25.271Z,9.83
2019-05-12T03:46:25.130Z,9.81
2019-05-12T03:47:25.329Z,9.81
2019-05-12T03:48:25.356Z,9.90
2019-05-12T03:49:24.908Z,9.85
2019-05-12T03:50:24.891Z,9.85
2019-05-12T03:51:25.329Z,9.84
2019-05-12T03:52:24.918Z,9.85
2019-05-12T03:53:25.160Z,9.90
2019-05-12T03:54:24.851Z,9.94
2019-05-12T03:55:35.269Z,9.91
2019-05-12T03:56:26.370Z,9.90
2019-05-12T03:57:25.447Z,9.81
2019-05-12T03:58:25.714Z,9.87
2019-05-12T03:59:25.574Z,9.81
2019-05-12T04:00:25.028Z,9.94
2019-05-12T04:01:25.552Z,9.87
2019-05-12T04:02:25.213Z,9.90
2019-05-12T04:03:24.976Z,9.99
2019-05-12T04:04:24.747Z,9.94
2019-05-12T04:05:24.768Z,9.91
2019-05-12T04:06:24.962Z,10.05
2019-05-12T04:07:24.730Z,9.94
2019-05-12T04:08:24.863Z,9.99
2019-05-12T04:09:24.827Z,10.03
2019-05-12T04:10:24.940Z,10.08
2019-05-12T04:11:25.163Z,10.03
2019-05-12T04:12:25.636Z,10.03
2019-05-12T04:13:26.617Z,10.10
2019-05-12T04:14:25.373Z,10.01
2019-05-12T04:15:25.549Z,10.01
2019-05-12T04:16:25.031Z,10.08
2019-05-12T04:17:24.664Z,10.08
2019-05-12T04:18:24.877Z,10.05
2019-05-12T04:19:25.061Z,10.06
2019-05-12T04:20:25.611Z,10.14
2019-05-12T04:21:24.738Z,10.03
2019-05-12T04:22:25.027Z,10.08
2019-05-12T04:23:25.041Z,10.09
2019-05-12T04:24:25.016Z,10.05
2019-05-12T04:25:25.183Z,10.05
2019-05-12T04:26:25.496Z,10.10
2019-05-12T04:27:25.278Z,10.03
2019-05-12T04:28:24.745Z,10.06
2019-05-12T04:29:25.128Z,10.09
2019-05-12T04:30:25.220Z,9.99
2019-05-12T04:31:25.115Z,10.14
2019-05-12T04:32:25.144Z,10.03
2019-05-12T04:33:25.642Z,10.09
2019-05-12T04:34:25.262Z,10.03
2019-05-12T04:35:25.360Z,10.12
2019-05-12T04:36:24.979Z,10.09
2019-05-12T04:37:25.027Z,10.16
2019-05-12T04:38:24.925Z,10.08
2019-05-12T04:39:25.273Z,10.06
2019-05-12T04:40:24.873Z,10.06
2019-05-12T04:41:26.006Z,10.08
2019-05-12T04:42:25.267Z,10.03
2019-05-12T04:43:25.416Z,10.09
2019-05-12T04:44:25.255Z,10.06
2019-05-12T04:45:25.529Z,10.03
2019-05-12T04:46:25.294Z,10.09
2019-05-12T04:47:25.279Z,10.12
2019-05-12T04:48:25.819Z,10.10
2019-05-12T04:49:25.198Z,10.14
2019-05-12T04:50:24.688Z,10.08
2019-05-12T04:51:25.947Z,10.16
2019-05-12T04:52:24.909Z,10.23
2019-05-12T04:53:25.146Z,10.23
2019-05-12T04:54:24.834Z,10.26
2019-05-12T04:55:25.675Z,10.28
2019-05-12T04:56:25.036Z,10.20
2019-05-12T04:57:25.385Z,10.30
2019-05-12T04:58:25.560Z,10.27
2019-05-12T04:59:25.397Z,10.27
2019-05-12T05:00:25.725Z,10.27
2019-05-12T05:01:25.295Z,10.34
2019-05-12T05:02:25.213Z,10.30
2019-05-12T05:03:24.823Z,10.27
2019-05-12T05:04:24.578Z,10.45
2019-05-12T05:05:24.880Z,10.39
2019-05-12T05:06:25.294Z,10.54
2019-05-12T05:07:24.530Z,10.52
2019-05-12T05:08:24.548Z,10.54
2019-05-12T05:09:24.653Z,10.54
2019-05-12T05:10:24.932Z,10.61
2019-05-12T05:11:24.992Z,10.72
2019-05-12T05:12:24.105Z,10.70
2019-05-12T05:13:24.520Z,10.75
2019-05-12T05:14:24.737Z,10.80
2019-05-12T05:15:25.015Z,10.87
2019-05-12T05:16:24.829Z,10.94
2019-05-12T05:17:24.518Z,11.03
2019-05-12T05:18:24.012Z,11.04
2019-05-12T05:19:24.484Z,11.03
2019-05-12T05:20:24.108Z,11.09
2019-05-12T05:21:24.125Z,10.98
2019-05-12T05:22:24.323Z,11.25
2019-05-12T05:23:24.251Z,11.09
2019-05-12T05:24:23.874Z,11.20
2019-05-12T05:25:23.884Z,11.15
2019-05-12T05:26:27.889Z,11.23
2019-05-12T05:27:24.742Z,11.18
2019-05-12T05:28:23.823Z,11.25
2019-05-12T05:29:24.126Z,11.34
2019-05-12T05:30:24.363Z,11.25
2019-05-12T05:31:24.413Z,11.25
2019-05-12T05:32:23.802Z,11.38
2019-05-12T05:33:24.008Z,11.34
2019-05-12T05:34:23.794Z,11.37
2019-05-12T05:35:23.975Z,11.38
2019-05-12T05:36:25.007Z,11.41
2019-05-12T05:37:23.975Z,11.49
2019-05-12T05:38:23.805Z,11.52
2019-05-12T05:39:24.360Z,11.49
2019-05-12T05:40:28.380Z,11.52
2019-05-12T05:41:24.710Z,11.54
2019-05-12T05:42:28.422Z,11.55
2019-05-12T05:43:24.668Z,11.67
2019-05-12T05:44:24.085Z,11.55
2019-05-12T05:45:26.368Z,11.70
2019-05-12T05:46:24.168Z,11.69
2019-05-12T05:47:25.471Z,11.71
2019-05-12T05:48:24.168Z,11.76
2019-05-12T05:49:23.868Z,11.74
2019-05-12T05:50:29.199Z,11.66
2019-05-12T05:51:24.566Z,11.66
2019-05-12T05:52:24.575Z,11.61
2019-05-12T05:53:24.605Z,11.67
2019-05-12T05:54:31.485Z,11.61
2019-05-12T05:55:24.555Z,11.61
2019-05-12T05:56:38.379Z,11.64
2019-05-12T05:57:28.281Z,11.59
2019-05-12T05:58:26.092Z,11.62
2019-05-12T05:59:31.395Z,11.62
2019-05-12T06:00:26.315Z,11.62
2019-05-12T06:01:24.477Z,11.70
2019-05-12T06:02:31.434Z,11.74
2019-05-12T06:03:27.781Z,11.77
2019-05-12T06:04:23.880Z,11.85
2019-05-12T06:05:26.265Z,11.85
2019-05-12T06:06:24.440Z,11.89
2019-05-12T06:07:34.473Z,12.11
2019-05-12T06:08:24.449Z,12.11
2019-05-12T06:09:23.639Z,12.13
2019-05-12T06:10:34.928Z,12.36
2019-05-12T06:11:28.312Z,12.33
2019-05-12T06:12:23.990Z,12.46
2019-05-12T06:13:27.380Z,12.76
2019-05-12T06:14:24.382Z,12.95
2019-05-12T06:15:23.605Z,13.09
2019-05-12T06:16:25.101Z,13.29
2019-05-12T06:17:23.660Z,13.64
2019-05-12T06:18:23.927Z,13.88
2019-05-12T06:19:26.067Z,14.01
2019-05-12T06:20:23.840Z,14.38
2019-05-12T06:21:24.172Z,14.59
2019-05-12T06:22:23.628Z,14.97
2019-05-12T06:23:24.068Z,15.20
2019-05-12T06:24:23.895Z,15.33
2019-05-12T06:25:26.393Z,15.58
2019-05-12T06:26:31.438Z,15.91
2019-05-12T06:27:24.433Z,16.16
2019-05-12T06:28:23.539Z,16.37
2019-05-12T06:29:25.157Z,16.55
2019-05-12T06:30:24.305Z,16.79
2019-05-12T06:31:25.278Z,16.95
2019-05-12T06:32:25.084Z,17.04
2019-05-12T06:33:31.317Z,17.35
2019-05-12T06:34:24.170Z,17.56
2019-05-12T06:35:24.089Z,17.87
2019-05-12T06:36:27.114Z,18.03
2019-05-12T06:37:23.681Z,18.24
2019-05-12T06:38:23.629Z,18.31
2019-05-12T06:39:23.544Z,18.30
2019-05-12T06:40:24.339Z,18.42
2019-05-12T06:41:25.715Z,18.52
2019-05-12T06:42:24.195Z,18.66
2019-05-12T06:43:24.360Z,18.52
2019-05-12T06:44:24.024Z,18.39
2019-05-12T06:45:23.544Z,18.31
2019-05-12T06:46:25.740Z,18.28
2019-05-12T06:47:24.045Z,18.02
2019-05-12T06:48:28.430Z,17.76
2019-05-12T06:49:24.628Z,17.47
2019-05-12T06:50:23.756Z,17.47
2019-05-12T06:51:25.830Z,17.38
2019-05-12T06:52:23.706Z,17.38
2019-05-12T06:53:29.037Z,17.27
2019-05-12T06:54:24.777Z,17.17
2019-05-12T06:55:23.802Z,17.04
2019-05-12T06:56:23.613Z,17.01
2019-05-12T06:57:28.329Z,16.95
2019-05-12T06:58:29.596Z,16.83
2019-05-12T06:59:23.880Z,16.77
2019-05-12T07:00:30.981Z,16.72
2019-05-12T07:01:24.301Z,16.76
2019-05-12T07:02:24.496Z,16.72
2019-05-12T07:03:26.146Z,16.70
2019-05-12T07:04:24.117Z,16.77
2019-05-12T07:05:23.348Z,16.83
2019-05-12T07:06:24.755Z,17.02
2019-05-12T07:07:25.561Z,17.19
2019-05-12T07:08:29.973Z,17.24
2019-05-12T07:09:27.974Z,17.35
2019-05-12T07:10:36.629Z,17.46
2019-05-12T07:11:24.489Z,17.76
2019-05-12T07:12:24.929Z,18.09
2019-05-12T07:13:29.255Z,18.15
2019-05-12T07:14:27.110Z,18.27
2019-05-12T07:15:23.354Z,18.43
2019-05-12T07:16:29.802Z,18.79
2019-05-12T07:17:23.921Z,18.93
2019-05-12T07:18:26.122Z,19.09
2019-05-12T07:19:25.571Z,19.24
2019-05-12T07:20:24.057Z,19.47
2019-05-12T07:21:26.528Z,19.63
2019-05-12T07:22:25.683Z,19.72
2019-05-12T07:23:26.021Z,19.87
2019-05-12T07:24:23.976Z,19.96
2019-05-12T07:25:30.871Z,20.14
2019-05-12T07:26:23.683Z,20.37
2019-05-12T07:27:36.092Z,20.34
2019-05-12T07:28:23.829Z,20.55
2019-05-12T07:29:23.870Z,20.60
2019-05-12T07:30:24.022Z,20.74
2019-05-12T07:31:23.305Z,21.00
2019-05-12T07:32:24.602Z,21.14
2019-05-12T07:33:23.327Z,21.28
2019-05-12T07:34:24.019Z,21.34
2019-05-12T07:35:24.039Z,21.50
2019-05-12T07:36:24.304Z,21.47
2019-05-12T07:37:23.625Z,21.56
2019-05-12T07:38:25.693Z,21.60
2019-05-12T07:39:24.183Z,21.73
2019-05-12T07:40:25.777Z,21.84
2019-05-12T07:41:23.787Z,22.12
2019-05-12T07:42:30.988Z,22.13
2019-05-12T07:43:24.266Z,22.33
2019-05-12T07:44:25.115Z,22.48
2019-05-12T07:45:25.075Z,22.55
2019-05-12T07:46:24.981Z,22.59
2019-05-12T07:47:27.393Z,22.64
2019-05-12T07:48:23.400Z,22.71
2019-05-12T07:49:33.805Z,22.92
2019-05-12T07:50:27.042Z,23.26
2019-05-12T07:51:24.145Z,23.36
2019-05-12T07:52:24.243Z,23.33
2019-05-12T07:53:23.351Z,23.52
2019-05-12T07:54:23.558Z,23.70
2019-05-12T07:55:23.731Z,23.82
2019-05-12T07:56:25.945Z,23.74
2019-05-12T07:57:24.262Z,23.61
2019-05-12T07:58:23.979Z,23.74
2019-05-12T07:59:26.673Z,23.55
2019-05-12T08:00:25.770Z,23.46
2019-05-12T08:01:23.616Z,23.31
2019-05-12T08:02:23.273Z,23.25
2019-05-12T08:03:24.294Z,23.33
2019-05-12T08:04:23.926Z,23.13
2019-05-12T08:05:23.991Z,23.21
2019-05-12T08:06:24.319Z,23.31
2019-05-12T08:07:28.307Z,23.54
2019-05-12T08:08:23.602Z,23.71
2019-05-12T08:09:24.157Z,23.74
2019-05-12T08:10:23.541Z,23.97
2019-05-12T08:11:23.634Z,24.21
2019-05-12T08:12:23.791Z,24.15
2019-05-12T08:13:23.803Z,24.00
2019-05-12T08:14:25.782Z,23.89
2019-05-12T08:15:24.631Z,23.73
2019-05-12T08:16:28.104Z,23.54
2019-05-12T08:17:24.583Z,23.36
2019-05-12T08:18:21.967Z,23.28
2019-05-12T08:19:26.583Z,23.13
2019-05-12T08:20:23.887Z,22.86
2019-05-12T08:21:24.136Z,22.86
2019-05-12T08:22:24.994Z,22.48
2019-05-12T08:23:23.426Z,22.28
2019-05-12T08:24:23.658Z,22.06
2019-05-12T08:25:27.053Z,21.80
2019-05-12T08:26:23.963Z,21.66
2019-05-12T08:27:23.432Z,21.23
2019-05-12T08:28:28.048Z,21.14
2019-05-12T08:29:24.266Z,20.95
2019-05-12T08:30:23.938Z,20.80
2019-05-12T08:31:25.860Z,20.64
2019-05-12T08:32:23.474Z,20.50
2019-05-12T08:33:23.829Z,20.34
2019-05-12T08:34:23.729Z,20.22
2019-05-12T08:35:29.414Z,20.02
2019-05-12T08:36:23.668Z,19.89
2019-05-12T08:37:24.246Z,19.72
2019-05-12T08:38:21.797Z,19.60
2019-05-12T08:39:25.377Z,19.54
2019-05-12T08:40:21.739Z,19.59
2019-05-12T08:41:23.552Z,19.60
2019-05-12T08:42:23.884Z,19.64
2019-05-12T08:43:23.881Z,19.63
2019-05-12T08:44:24.962Z,19.57
2019-05-12T08:45:28.889Z,19.44
2019-05-12T08:46:24.327Z,19.35
2019-05-12T08:47:23.905Z,19.39
2019-05-12T08:48:24.811Z,19.49
2019-05-12T08:49:23.501Z,19.60
2019-05-12T08:50:23.264Z,19.68
2019-05-12T08:51:25.034Z,19.60
2019-05-12T08:52:23.549Z,19.56
2019-05-12T08:53:23.550Z,19.45
2019-05-12T08:54:23.271Z,19.39
2019-05-12T08:55:22.791Z,19.34
2019-05-12T08:56:24.002Z,19.22
2019-05-12T08:57:24.044Z,19.26
2019-05-12T08:58:31.594Z,19.19
2019-05-12T08:59:26.691Z,19.09
2019-05-12T09:00:23.688Z,19.09
2019-05-12T09:01:26.505Z,19.09
2019-05-12T09:02:24.036Z,19.04
2019-05-12T09:03:26.953Z,18.91
2019-05-12T09:04:24.787Z,18.83
2019-05-12T09:05:27.995Z,18.83
2019-05-12T09:06:23.761Z,18.63
2019-05-12T09:07:21.494Z,18.63
2019-05-12T09:08:21.439Z,18.64
2019-05-12T09:09:23.279Z,18.46
2019-05-12T09:10:23.392Z,18.48
2019-05-12T09:11:21.424Z,18.54
2019-05-12T09:12:23.304Z,18.36
2019-05-12T09:13:23.375Z,18.26
2019-05-12T09:14:23.751Z,18.27
2019-05-12T09:15:21.360Z,18.28
2019-05-12T09:16:21.348Z,18.21
2019-05-12T09:17:23.249Z,18.24
2019-05-12T09:18:23.515Z,18.23
2019-05-12T09:19:24.918Z,18.30
2019-05-12T09:20:21.304Z,18.26
2019-05-12T09:21:23.724Z,18.18
2019-05-12T09:22:24.104Z,18.08
2019-05-12T09:23:21.303Z,18.05
2019-05-12T09:24:25.705Z,18.03
2019-05-12T09:25:23.868Z,17.94
2019-05-12T09:26:26.669Z,17.97
2019-05-12T09:27:24.127Z,17.99
2019-05-12T09:28:21.250Z,17.94
2019-05-12T09:29:21.204Z,18.01
2019-05-12T09:30:21.194Z,17.87
2019-05-12T09:31:25.350Z,17.78
2019-05-12T09:32:23.588Z,17.81
2019-05-12T09:33:26.250Z,17.84
2019-05-12T09:34:23.527Z,17.78
2019-05-12T09:35:21.142Z,17.79
2019-05-12T09:36:21.733Z,17.81
2019-05-12T09:37:21.119Z,17.81
2019-05-12T09:38:22.995Z,17.79
2019-05-12T09:39:23.340Z,17.81
2019-05-12T09:40:22.789Z,17.87
2019-05-12T09:41:21.063Z,17.88
2019-05-12T09:42:25.601Z,17.99
2019-05-12T09:43:24.009Z,17.90
2019-05-12T09:44:26.541Z,17.91
2019-05-12T09:45:23.932Z,17.73
2019-05-12T09:46:23.192Z,17.73
2019-05-12T09:47:27.106Z,17.75
2019-05-12T09:48:24.512Z,17.75
2019-05-12T09:49:22.794Z,17.63
2019-05-12T09:50:23.373Z,17.66
2019-05-12T09:51:20.963Z,17.66
2019-05-12T09:52:23.262Z,17.56
2019-05-12T09:53:23.733Z,17.57
2019-05-12T09:54:27.820Z,17.63
2019-05-12T09:55:24.422Z,17.69
2019-05-12T09:56:20.911Z,17.62
2019-05-12T09:57:20.900Z,17.69
2019-05-12T09:58:27.692Z,17.63
2019-05-12T09:59:23.666Z,17.54
2019-05-12T10:00:20.856Z,17.66
2019-05-12T10:01:20.853Z,17.66
2019-05-12T10:02:21.183Z,17.78
2019-05-12T10:03:20.820Z,17.73
2019-05-12T10:04:20.835Z,17.81
2019-05-12T10:05:20.795Z,17.76
2019-05-12T10:06:21.403Z,17.87
2019-05-12T10:07:20.791Z,17.87
2019-05-12T10:08:20.764Z,17.88
2019-05-12T10:09:20.817Z,17.97
2019-05-12T10:10:20.757Z,18.06
2019-05-12T10:11:21.077Z,18.13
2019-05-12T10:12:20.735Z,18.03
2019-05-12T10:13:26.238Z,18.17
2019-05-12T10:14:23.518Z,18.21
2019-05-12T10:15:26.749Z,18.21
2019-05-12T10:16:23.936Z,18.30
2019-05-12T10:17:26.306Z,18.36
2019-05-12T10:18:21.678Z,18.31
2019-05-12T10:19:20.653Z,18.38
2019-05-12T10:20:21.656Z,18.61
2019-05-12T10:21:20.651Z,18.60
2019-05-12T10:22:20.608Z,18.71
2019-05-12T10:23:24.492Z,18.60
2019-05-12T10:24:21.593Z,18.68
2019-05-12T10:25:23.265Z,18.83
2019-05-12T10:26:21.592Z,18.86
2019-05-12T10:27:21.056Z,18.89
2019-05-12T10:28:23.638Z,19.08
2019-05-12T10:29:21.056Z,19.19
2019-05-12T10:30:20.572Z,19.45
2019-05-12T10:31:20.580Z,19.57
2019-05-12T10:32:20.507Z,19.87
2019-05-12T10:33:20.502Z,20.23
2019-05-12T10:34:20.487Z,20.27
2019-05-12T10:35:23.821Z,20.42
2019-05-12T10:36:21.480Z,20.44
2019-05-12T10:37:25.285Z,20.44
2019-05-12T10:38:24.004Z,20.53
2019-05-12T10:39:20.441Z,20.63
2019-05-12T10:40:20.461Z,20.71
2019-05-12T10:41:20.435Z,20.97
2019-05-12T10:42:20.390Z,21.26
2019-05-12T10:43:20.401Z,21.48
2019-05-12T10:44:20.374Z,21.74
2019-05-12T10:45:20.833Z,22.13
2019-05-12T10:46:26.865Z,22.07
2019-05-12T10:47:21.342Z,22.34
2019-05-12T10:48:20.336Z,22.48
2019-05-12T10:49:20.330Z,22.77
2019-05-12T10:50:20.311Z,23.15
2019-05-12T10:51:20.366Z,23.22
2019-05-12T10:52:20.292Z,23.54
2019-05-12T10:53:20.283Z,23.84
2019-05-12T10:54:20.270Z,24.19
2019-05-12T10:55:20.297Z,24.43
2019-05-12T10:56:20.273Z,24.68
2019-05-12T10:57:20.272Z,25.00
2019-05-12T10:58:20.290Z,25.45
2019-05-12T10:59:30.279Z,25.86
2019-05-12T11:00:25.161Z,26.31
2019-05-12T11:01:21.218Z,26.34
2019-05-12T11:02:25.278Z,26.46
2019-05-12T11:03:21.169Z,26.73
2019-05-12T11:04:25.102Z,27.04
2019-05-12T11:05:23.309Z,27.41
2019-05-12T11:06:20.148Z,27.94
2019-05-12T11:07:22.875Z,28.19
2019-05-12T11:08:21.184Z,28.47
2019-05-12T11:09:21.339Z,28.69
2019-05-12T11:10:23.232Z,28.84
2019-05-12T11:11:20.095Z,28.91
2019-05-12T11:12:25.272Z,29.00
2019-05-12T11:13:23.213Z,29.06
2019-05-12T11:14:25.132Z,29.39
2019-05-12T11:15:21.047Z,29.56
2019-05-12T11:16:22.719Z,29.03
2019-05-12T11:17:21.022Z,29.21
2019-05-12T11:18:20.469Z,28.75
2019-05-12T11:19:20.020Z,28.71
2019-05-12T11:20:19.990Z,28.89
2019-05-12T11:21:19.977Z,28.89
2019-05-12T11:22:19.969Z,29.17
2019-05-12T11:23:19.986Z,29.18
2019-05-12T11:24:19.948Z,29.28
2019-05-12T11:25:19.948Z,29.21
2019-05-12T11:26:19.940Z,29.25
2019-05-12T11:27:19.960Z,29.50
2019-05-12T11:28:19.918Z,29.59
2019-05-12T11:29:19.933Z,29.89
2019-05-12T11:30:19.905Z,29.91
2019-05-12T11:31:19.880Z,29.93
2019-05-12T11:32:19.881Z,30.10
2019-05-12T11:33:19.981Z,29.73
2019-05-12T11:34:19.887Z,29.80
2019-05-12T11:35:19.856Z,29.65
2019-05-12T11:36:19.827Z,30.05
2019-05-12T11:37:19.846Z,30.24
2019-05-12T11:38:19.819Z,30.59
2019-05-12T11:39:19.825Z,30.97
2019-05-12T11:40:19.799Z,31.57
2019-05-12T11:41:20.405Z,31.70
2019-05-12T11:42:19.780Z,32.02
2019-05-12T11:43:19.751Z,32.17
2019-05-12T11:44:19.758Z,32.35
2019-05-12T11:45:19.760Z,32.60
2019-05-12T11:46:19.717Z,32.53
2019-05-12T11:47:24.106Z,32.57
2019-05-12T11:48:20.710Z,32.39
2019-05-12T11:49:21.866Z,32.27
2019-05-12T11:50:20.693Z,32.20
2019-05-12T11:51:20.708Z,32.38
2019-05-12T11:52:20.703Z,32.36
2019-05-12T11:53:21.728Z,32.43
2019-05-12T11:54:20.679Z,32.46
2019-05-12T11:55:21.432Z,32.91
2019-05-12T11:56:20.632Z,33.03
2019-05-12T11:57:20.035Z,32.54
2019-05-12T11:58:20.597Z,32.51
2019-05-12T11:59:19.582Z,31.66
2019-05-12T12:00:19.683Z,31.59
2019-05-12T12:01:19.647Z,31.81
2019-05-12T12:02:20.103Z,31.78
2019-05-12T12:03:20.546Z,31.86
2019-05-12T12:04:19.531Z,32.11
2019-05-12T12:05:19.550Z,32.43
2019-05-12T12:06:19.510Z,32.70
2019-05-12T12:07:19.503Z,32.98
2019-05-12T12:08:19.533Z,33.39
2019-05-12T12:09:19.493Z,33.66
2019-05-12T12:10:19.504Z,33.36
2019-05-12T12:11:24.767Z,33.03
2019-05-12T12:12:20.508Z,32.87
2019-05-12T12:13:25.545Z,32.41
2019-05-12T12:14:20.480Z,32.41
2019-05-12T12:15:20.253Z,32.45
2019-05-12T12:16:20.464Z,32.13
2019-05-12T12:17:22.833Z,31.76
2019-05-12T12:18:20.381Z,31.49
2019-05-12T12:19:19.388Z,31.07
2019-05-12T12:20:22.280Z,30.64
2019-05-12T12:21:19.356Z,30.53
2019-05-12T12:22:20.221Z,30.64
2019-05-12T12:23:20.333Z,30.53
2019-05-12T12:24:21.362Z,29.96
2019-05-12T12:25:20.322Z,29.96
2019-05-12T12:26:20.119Z,30.14
2019-05-12T12:27:19.362Z,30.33
2019-05-12T12:28:19.298Z,31.05
2019-05-12T12:29:19.305Z,31.57
2019-05-12T12:30:19.866Z,31.64
2019-05-12T12:31:19.260Z,31.54
2019-05-12T12:32:20.490Z,31.76
2019-05-12T12:33:19.240Z,31.78
2019-05-12T12:34:23.810Z,31.81
2019-05-12T12:35:20.223Z,32.06
2019-05-12T12:36:21.050Z,32.24
2019-05-12T12:37:24.098Z,32.41
2019-05-12T12:38:20.227Z,32.68
2019-05-12T12:39:19.172Z,32.75
2019-05-12T12:40:19.162Z,32.87
2019-05-12T12:41:19.164Z,33.35
2019-05-12T12:42:19.154Z,33.66
2019-05-12T12:43:19.166Z,33.66
2019-05-12T12:44:19.134Z,33.89
2019-05-12T12:45:19.120Z,34.32
2019-05-12T12:46:21.584Z,34.55
2019-05-12T12:47:19.095Z,34.53
2019-05-12T12:48:24.265Z,34.62
2019-05-12T12:49:20.064Z,34.73
2019-05-12T12:50:20.237Z,33.79
2019-05-12T12:51:20.061Z,33.71
2019-05-12T12:52:19.043Z,33.78
2019-05-12T12:53:19.045Z,32.88
2019-05-12T12:54:19.037Z,33.06
2019-05-12T12:55:19.011Z,33.16
2019-05-12T12:56:27.721Z,32.46
2019-05-12T12:57:19.983Z,32.31